createdAt,value
2022-12-12T00:01:46.371Z,26.42
2022-12-12T00:04:15.544Z,23.77
2022-12-12T00:06:47.395Z,24.90
2022-12-12T00:09:16.355Z,25.33
2022-12-12T00:11:43.146Z,22.60
2022-12-12T00:14:09.932Z,21.67
2022-12-12T00:16:38.907Z,23.05
2022-12-12T00:19:07.965Z,22.55
2022-12-12T00:21:34.714Z,22.00
2022-12-12T00:24:01.470Z,22.02
2022-12-12T00:26:35.771Z,44.33
2022-12-12T00:29:04.912Z,32.63
2022-12-12T00:31:31.694Z,22.85
2022-12-12T00:33:58.473Z,20.15
2022-12-12T00:36:32.446Z,22.98
2022-12-12T00:39:02.617Z,19.08
2022-12-12T00:41:29.579Z,21.48
2022-12-12T00:43:56.421Z,23.73
2022-12-12T00:46:27.263Z,21.05
2022-12-12T00:48:58.516Z,24.15
2022-12-12T00:51:27.089Z,25.27
2022-12-12T00:53:53.950Z,23.50
2022-12-12T00:56:22.570Z,20.80
2022-12-12T00:58:57.645Z,22.27
2022-12-12T01:01:31.181Z,24.23
2022-12-12T01:03:59.292Z,25.33
2022-12-12T01:06:27.343Z,26.20
2022-12-12T01:08:57.028Z,24.42
2022-12-12T01:11:28.978Z,21.65
2022-12-12T01:16:25.583Z,28.42
2022-12-12T01:18:56.995Z,27.00
2022-12-12T01:21:28.309Z,23.08
2022-12-12T01:23:57.353Z,26.52
2022-12-12T01:26:24.994Z,24.88
2022-12-12T01:28:52.149Z,22.00
2022-12-12T01:31:19.267Z,22.30
2022-12-12T01:33:48.552Z,23.42
2022-12-12T01:36:19.042Z,24.73
2022-12-12T01:38:50.865Z,29.42
2022-12-12T01:41:20.614Z,22.67
2022-12-12T01:43:50.171Z,25.20
2022-12-12T01:46:25.952Z,22.95
2022-12-12T01:49:00.525Z,22.42
2022-12-12T01:51:28.170Z,23.77
2022-12-12T01:54:05.358Z,19.92
2022-12-12T01:56:33.046Z,25.60
2022-12-12T01:59:02.177Z,24.80
2022-12-12T02:01:31.598Z,24.83
2022-12-12T02:04:00.631Z,26.55
2022-12-12T02:06:33.724Z,23.55
2022-12-12T02:09:04.882Z,25.90
2022-12-12T02:11:42.209Z,24.83
2022-12-12T02:14:09.191Z,26.75
2022-12-12T02:17:12.655Z,23.58
2022-12-12T02:20:24.603Z,24.95
2022-12-12T02:23:00.714Z,23.95
2022-12-12T02:26:18.080Z,23.30
2022-12-12T02:29:25.734Z,25.05
2022-12-12T02:32:13.826Z,24.45
2022-12-12T02:34:49.573Z,21.50
2022-12-12T02:37:29.421Z,24.17
2022-12-12T02:40:05.011Z,23.38
2022-12-12T02:42:44.851Z,23.25
2022-12-12T02:45:21.406Z,23.75
2022-12-12T02:47:56.914Z,21.85
2022-12-12T02:50:28.519Z,21.08
2022-12-12T02:52:55.240Z,22.27
2022-12-12T02:55:24.512Z,22.13
2022-12-12T02:57:54.128Z,19.83
2022-12-12T03:00:23.262Z,24.27
2022-12-12T03:03:39.536Z,22.98
2022-12-12T03:07:09.075Z,21.38
2022-12-12T03:09:59.564Z,25.95
2022-12-12T03:12:48.966Z,19.67
2022-12-12T03:15:38.687Z,20.35
2022-12-12T03:18:36.824Z,27.38
2022-12-12T03:21:03.643Z,19.15
2022-12-12T03:23:39.211Z,25.05
2022-12-12T03:26:09.016Z,21.38
2022-12-12T03:28:48.500Z,23.00
2022-12-12T03:31:17.864Z,23.65
2022-12-12T03:33:49.607Z,20.92
2022-12-12T03:36:29.970Z,25.25
2022-12-12T03:39:02.138Z,22.38
2022-12-12T03:41:35.952Z,23.92
2022-12-12T03:44:22.391Z,17.45
2022-12-12T03:46:57.142Z,22.88
2022-12-12T03:49:34.812Z,24.38
2022-12-12T03:52:23.147Z,21.30
2022-12-12T03:54:56.421Z,24.38
2022-12-12T03:57:47.964Z,26.52
2022-12-12T04:00:18.336Z,23.30
2022-12-12T04:02:58.377Z,22.98
2022-12-12T04:06:00.043Z,24.60
2022-12-12T04:08:27.432Z,21.50
2022-12-12T04:11:19.672Z,23.60
2022-12-12T04:16:39.775Z,23.42
2022-12-12T04:19:13.548Z,25.52
2022-12-12T04:22:01.279Z,18.20
2022-12-12T04:24:41.074Z,21.63
2022-12-12T04:27:09.641Z,24.20
2022-12-12T04:29:55.682Z,19.98
2022-12-12T04:32:30.666Z,22.83
2022-12-12T04:35:13.635Z,23.02
2022-12-12T04:37:46.523Z,22.88
2022-12-12T04:40:22.520Z,19.55
2022-12-12T04:43:29.084Z,22.10
2022-12-12T04:46:00.951Z,21.90
2022-12-12T04:51:06.694Z,24.23
2022-12-12T04:53:39.318Z,20.63
2022-12-12T04:56:11.759Z,20.70
2022-12-12T04:58:40.182Z,19.13
2022-12-12T05:01:53.397Z,23.95
2022-12-12T05:04:39.390Z,18.67
2022-12-12T05:07:20.497Z,20.88
2022-12-12T05:09:50.482Z,19.85
2022-12-12T05:12:20.958Z,18.02
2022-12-12T05:14:54.925Z,21.90
2022-12-12T05:17:31.266Z,16.20
2022-12-12T05:19:58.744Z,14.77
2022-12-12T05:22:25.495Z,19.65
2022-12-12T05:24:52.180Z,23.67
2022-12-12T05:27:23.248Z,22.52
2022-12-12T05:29:49.894Z,21.03
2022-12-12T05:32:18.804Z,24.38
2022-12-12T05:34:47.779Z,21.60
2022-12-12T05:37:14.416Z,21.77
2022-12-12T05:39:43.390Z,25.75
2022-12-12T05:42:12.533Z,25.77
2022-12-12T05:44:39.327Z,23.33
2022-12-12T05:47:08.222Z,26.50
2022-12-12T05:49:34.983Z,24.77
2022-12-12T05:52:02.083Z,24.23
2022-12-12T05:54:28.836Z,24.77
2022-12-12T05:56:57.907Z,25.55
2022-12-12T05:59:27.167Z,25.25
2022-12-12T06:01:58.932Z,26.95
2022-12-12T06:04:30.694Z,26.23
2022-12-12T06:06:59.900Z,21.58
2022-12-12T06:09:26.725Z,26.02
2022-12-12T06:11:53.830Z,24.55
2022-12-12T06:14:20.559Z,22.30
2022-12-12T06:16:47.330Z,23.45
2022-12-12T06:19:17.603Z,24.63
2022-12-12T06:21:44.420Z,20.67
2022-12-12T06:24:11.482Z,26.17
2022-12-12T06:26:42.703Z,22.42
2022-12-12T06:29:11.727Z,23.05
2022-12-12T06:31:43.214Z,22.88
2022-12-12T06:34:10.056Z,20.63
2022-12-12T06:36:37.116Z,24.75
2022-12-12T06:39:04.370Z,23.27
2022-12-12T06:41:33.246Z,25.23
2022-12-12T06:44:00.212Z,26.48
2022-12-12T06:46:29.067Z,22.20
2022-12-12T06:48:56.763Z,23.88
2022-12-12T06:51:26.261Z,26.58
2022-12-12T06:53:53.567Z,22.55
2022-12-12T06:56:26.231Z,24.70
2022-12-12T06:58:54.273Z,23.38
2022-12-12T07:01:23.140Z,25.00
2022-12-12T07:03:51.779Z,21.98
2022-12-12T07:06:20.960Z,25.10
2022-12-12T07:08:48.517Z,24.25
2022-12-12T07:11:18.270Z,23.38
2022-12-12T07:13:45.174Z,20.58
2022-12-12T07:16:12.320Z,20.08
2022-12-12T07:18:39.620Z,22.27
2022-12-12T07:21:10.510Z,22.88
2022-12-12T07:23:37.551Z,24.13
2022-12-12T07:26:13.482Z,29.13
2022-12-12T07:28:40.689Z,22.33
2022-12-12T07:31:11.819Z,24.90
2022-12-12T07:33:44.474Z,22.38
2022-12-12T07:36:13.637Z,23.45
2022-12-12T07:38:43.013Z,23.33
2022-12-12T07:41:13.478Z,22.38
2022-12-12T07:43:45.727Z,23.48
2022-12-12T07:46:18.445Z,25.52
2022-12-12T07:48:48.015Z,24.27
2022-12-12T07:51:16.137Z,18.63
2022-12-12T07:53:43.191Z,21.17
2022-12-12T07:56:14.169Z,22.27
2022-12-12T07:58:44.316Z,25.50
2022-12-12T08:01:16.577Z,20.98
2022-12-12T08:03:44.744Z,18.83
2022-12-12T08:06:11.903Z,21.90
2022-12-12T08:08:40.912Z,21.90
2022-12-12T08:11:10.124Z,22.48
2022-12-12T08:13:39.444Z,23.20
2022-12-12T08:16:12.643Z,24.52
2022-12-12T08:18:41.950Z,26.00
2022-12-12T08:21:13.210Z,25.83
2022-12-12T08:23:40.768Z,20.05
2022-12-12T08:26:12.566Z,25.30
2022-12-12T08:28:41.391Z,23.48
2022-12-12T08:31:09.070Z,21.88
2022-12-12T08:33:38.587Z,24.35
2022-12-12T08:36:14.745Z,24.42
2022-12-12T08:38:44.654Z,19.25
2022-12-12T08:41:16.557Z,25.75
2022-12-12T08:46:18.168Z,21.00
2022-12-12T08:48:48.059Z,26.90
2022-12-12T08:51:18.409Z,25.00
2022-12-12T08:53:52.804Z,23.50
2022-12-12T08:56:22.412Z,24.60
2022-12-12T08:58:50.716Z,23.33
2022-12-12T09:01:24.241Z,26.90
2022-12-12T09:03:54.741Z,22.15
2022-12-12T09:06:24.751Z,25.95
2022-12-12T09:08:51.641Z,27.33
2022-12-12T09:11:20.854Z,23.58
2022-12-12T09:13:49.941Z,25.27
2022-12-12T09:16:19.392Z,24.73
2022-12-12T09:18:49.061Z,26.83
2022-12-12T09:21:17.105Z,26.67
2022-12-12T09:23:46.113Z,22.85
2022-12-12T09:26:13.073Z,24.90
2022-12-12T09:28:42.516Z,19.67
2022-12-12T09:31:10.839Z,21.98
2022-12-12T09:33:38.095Z,25.30
2022-12-12T09:36:11.838Z,24.25
2022-12-12T09:38:38.685Z,22.58
2022-12-12T09:41:12.749Z,24.48
2022-12-12T09:43:47.707Z,28.30
2022-12-12T09:46:31.246Z,27.40
2022-12-12T09:49:13.182Z,23.30
2022-12-12T09:51:48.131Z,22.88
2022-12-12T09:54:21.006Z,22.48
2022-12-12T09:56:58.838Z,23.25
2022-12-12T09:59:38.984Z,19.75
2022-12-12T10:02:25.981Z,22.60
2022-12-12T10:05:07.089Z,24.85
2022-12-12T10:07:41.468Z,28.98
2022-12-12T10:10:22.565Z,25.73
2022-12-12T10:12:50.018Z,35.50
2022-12-12T10:15:25.734Z,45.08
2022-12-12T10:17:55.384Z,28.45
2022-12-12T10:20:27.674Z,21.70
2022-12-12T10:23:39.977Z,24.13
2022-12-12T10:26:15.090Z,20.50
2022-12-12T10:28:41.881Z,23.63
2022-12-12T10:31:26.810Z,24.05
2022-12-12T10:34:21.326Z,21.73
2022-12-12T10:37:01.806Z,19.10
2022-12-12T10:39:40.440Z,27.00
2022-12-12T10:42:26.094Z,27.73
2022-12-12T10:45:04.745Z,23.90
2022-12-12T10:47:34.580Z,26.70
2022-12-12T10:50:13.389Z,26.23
2022-12-12T10:52:40.563Z,20.60
2022-12-12T10:55:40.803Z,24.77
2022-12-12T10:58:07.949Z,22.27
2022-12-12T11:00:48.711Z,24.77
2022-12-12T11:03:35.853Z,26.63
2022-12-12T11:06:15.520Z,24.83
2022-12-12T11:08:53.920Z,27.50
2022-12-12T11:11:23.494Z,22.52
2022-12-12T11:14:01.453Z,21.58
2022-12-12T11:16:41.569Z,23.13
2022-12-12T11:19:24.421Z,28.88
2022-12-12T11:21:53.613Z,20.90
2022-12-12T11:24:32.264Z,23.52
2022-12-12T11:27:07.343Z,24.10
2022-12-12T11:29:53.171Z,21.98
2022-12-12T11:32:31.520Z,20.67
2022-12-12T11:35:04.950Z,24.05
2022-12-12T11:37:45.250Z,20.58
2022-12-12T11:40:34.554Z,26.63
2022-12-12T11:43:25.312Z,18.65
2022-12-12T11:46:06.025Z,20.70
2022-12-12T11:48:36.171Z,19.20
2022-12-12T11:51:04.609Z,20.80
2022-12-12T11:53:40.428Z,18.92
2022-12-12T11:56:10.231Z,17.23
2022-12-12T11:58:48.357Z,22.45
2022-12-12T12:01:36.523Z,16.42
2022-12-12T12:04:25.302Z,16.73
2022-12-12T12:07:07.489Z,19.38
2022-12-12T12:12:09.668Z,17.35
2022-12-12T12:14:55.137Z,19.35
2022-12-12T12:17:33.787Z,16.52
2022-12-12T12:20:24.868Z,15.95
2022-12-12T12:23:00.292Z,15.65
2022-12-12T12:25:50.187Z,15.60
2022-12-12T12:28:54.681Z,18.35
2022-12-12T12:31:43.838Z,16.67
2022-12-12T12:34:47.527Z,16.98
2022-12-12T12:37:35.777Z,15.90
2022-12-12T12:40:15.251Z,17.10
2022-12-12T12:42:49.832Z,15.85
2022-12-12T12:45:42.487Z,17.50
2022-12-12T12:48:16.926Z,17.23
2022-12-12T12:50:54.267Z,39.22
2022-12-12T12:53:39.254Z,23.55
2022-12-12T12:56:26.216Z,21.35
2022-12-12T12:58:59.298Z,18.27
2022-12-12T13:01:40.203Z,18.80
2022-12-12T13:04:45.917Z,17.30
2022-12-12T13:07:53.543Z,16.00
2022-12-12T13:10:24.591Z,17.90
2022-12-12T13:13:13.357Z,17.75
2022-12-12T13:15:51.516Z,15.68
2022-12-12T13:18:21.106Z,12.85
2022-12-12T13:21:32.260Z,16.25
2022-12-12T13:24:12.319Z,16.80
2022-12-12T13:26:53.438Z,18.65
2022-12-12T13:29:39.855Z,20.33
2022-12-12T13:32:38.776Z,19.13
2022-12-12T13:35:13.712Z,20.73
2022-12-12T13:37:51.876Z,15.80
2022-12-12T13:40:39.387Z,15.57
2022-12-12T13:43:10.223Z,14.07
2022-12-12T13:45:45.084Z,13.57
2022-12-12T13:48:46.596Z,16.13
2022-12-12T13:51:32.002Z,14.65
2022-12-12T13:54:12.538Z,21.20
2022-12-12T13:56:45.192Z,18.98
2022-12-12T13:59:25.351Z,16.55
2022-12-12T14:02:00.061Z,18.88
2022-12-12T14:04:28.833Z,14.10
2022-12-12T14:07:16.489Z,16.17
2022-12-12T14:09:53.287Z,15.30
2022-12-12T14:12:32.210Z,16.20
2022-12-12T14:15:04.894Z,50.20
2022-12-12T14:17:42.129Z,36.10
2022-12-12T14:20:33.215Z,20.48
2022-12-12T14:23:02.045Z,22.00
2022-12-12T14:25:40.246Z,23.15
2022-12-12T14:28:26.557Z,18.35
2022-12-12T14:31:23.731Z,19.42
2022-12-12T14:34:10.387Z,20.73
2022-12-12T14:36:58.797Z,25.38
2022-12-12T14:39:47.580Z,19.08
2022-12-12T14:43:18.965Z,20.45
2022-12-12T14:45:31.513Z,17.10
2022-12-12T14:48:23.016Z,15.95
2022-12-12T14:51:10.694Z,16.42
2022-12-12T14:53:37.339Z,27.40
2022-12-12T14:56:10.166Z,31.63
2022-12-12T14:58:43.179Z,44.17
2022-12-12T15:01:12.463Z,37.33
2022-12-12T15:03:47.051Z,31.05
2022-12-12T15:06:34.295Z,24.48
2022-12-12T15:09:19.315Z,18.05
2022-12-12T15:11:48.149Z,22.75
2022-12-12T15:14:19.493Z,20.88
2022-12-12T15:17:06.396Z,16.63
2022-12-12T15:19:52.253Z,22.17
2022-12-12T15:22:28.130Z,19.95
2022-12-12T15:24:57.580Z,18.42
2022-12-12T15:27:46.022Z,21.42
2022-12-12T15:30:26.078Z,18.05
2022-12-12T15:32:53.724Z,21.15
2022-12-12T15:35:24.967Z,21.27
2022-12-12T15:37:59.598Z,17.60
2022-12-12T15:40:32.434Z,17.23
2022-12-12T15:43:03.273Z,20.35
2022-12-12T15:45:39.161Z,20.92
2022-12-12T15:48:12.370Z,23.13
2022-12-12T15:50:42.047Z,19.23
2022-12-12T15:53:32.463Z,16.15
2022-12-12T15:56:09.033Z,18.15
2022-12-12T15:58:35.751Z,20.90
2022-12-12T16:01:08.183Z,15.45
2022-12-12T16:04:00.349Z,15.55
2022-12-12T16:06:32.427Z,13.48
2022-12-12T16:09:22.624Z,14.88
2022-12-12T16:11:51.439Z,17.58
2022-12-12T16:14:39.173Z,19.80
2022-12-12T16:17:20.087Z,16.85
2022-12-12T16:19:55.288Z,14.95
2022-12-12T16:22:48.088Z,13.80
2022-12-12T16:25:18.044Z,16.50
2022-12-12T16:27:49.316Z,21.75
2022-12-12T16:30:16.903Z,18.60
2022-12-12T16:32:46.241Z,17.33
2022-12-12T16:35:23.376Z,21.77
2022-12-12T16:37:52.490Z,26.27
2022-12-12T16:40:21.243Z,18.73
2022-12-12T16:43:03.670Z,16.73
2022-12-12T16:45:33.065Z,12.45
2022-12-12T16:48:00.009Z,14.18
2022-12-12T16:50:28.939Z,23.35
2022-12-12T16:52:55.770Z,18.70
2022-12-12T16:55:26.233Z,22.67
2022-12-12T16:57:52.933Z,18.77
2022-12-12T17:00:22.339Z,18.83
2022-12-12T17:02:49.088Z,18.55
2022-12-12T17:05:19.256Z,19.83
2022-12-12T17:07:46.000Z,18.08
2022-12-12T17:10:13.584Z,19.42
2022-12-12T17:12:40.873Z,20.25
2022-12-12T17:15:14.682Z,16.77
2022-12-12T17:17:46.767Z,17.90
2022-12-12T17:20:18.197Z,22.33
2022-12-12T17:22:46.371Z,23.85
2022-12-12T17:25:14.438Z,22.90
2022-12-12T17:27:41.977Z,23.02
2022-12-12T17:30:10.399Z,18.77
2022-12-12T17:32:37.432Z,17.70
2022-12-12T17:35:06.044Z,21.80
2022-12-12T17:37:32.920Z,16.83
2022-12-12T17:39:59.727Z,23.10
2022-12-12T17:42:28.919Z,19.55
2022-12-12T17:44:55.867Z,21.88
2022-12-12T17:47:25.326Z,20.42
2022-12-12T17:49:52.062Z,20.90
2022-12-12T17:52:20.915Z,21.30
2022-12-12T17:55:53.357Z,19.88
2022-12-12T17:57:37.102Z,22.25
2022-12-12T18:00:05.271Z,20.20
2022-12-12T18:02:33.800Z,20.02
2022-12-12T18:05:03.963Z,19.98
2022-12-12T18:07:33.193Z,21.00
2022-12-12T18:09:59.995Z,21.17
2022-12-12T18:12:27.035Z,19.48
2022-12-12T18:14:53.761Z,21.02
2022-12-12T18:17:20.686Z,21.33
2022-12-12T18:19:47.475Z,23.63
2022-12-12T18:22:16.810Z,23.10
2022-12-12T18:24:45.695Z,19.23
2022-12-12T18:27:14.866Z,20.40
2022-12-12T18:29:41.586Z,19.20
2022-12-12T18:32:08.378Z,20.35
2022-12-12T18:34:37.590Z,19.92
2022-12-12T18:37:04.436Z,19.80
2022-12-12T18:39:31.136Z,21.88
2022-12-12T18:42:00.701Z,24.10
2022-12-12T18:44:27.500Z,22.35
2022-12-12T18:46:54.234Z,24.77
2022-12-12T18:49:21.055Z,30.38
2022-12-12T18:51:47.922Z,20.65
2022-12-12T18:54:18.659Z,21.33
2022-12-12T18:56:48.666Z,21.60
2022-12-12T18:59:18.575Z,25.58
2022-12-12T19:01:45.777Z,22.10
2022-12-12T19:04:22.925Z,21.00
2022-12-12T19:06:50.631Z,25.58
2022-12-12T19:09:23.760Z,24.88
2022-12-12T19:12:01.846Z,26.00
2022-12-12T19:14:40.643Z,22.33
2022-12-12T19:17:18.411Z,26.25
2022-12-12T19:19:50.581Z,23.00
2022-12-12T19:25:09.681Z,21.15
2022-12-12T19:27:36.374Z,19.55
2022-12-12T19:30:04.017Z,21.55
2022-12-12T19:32:32.907Z,23.63
2022-12-12T19:34:59.718Z,20.02
2022-12-12T19:37:26.404Z,26.70
2022-12-12T19:39:53.410Z,24.52
2022-12-12T19:42:20.542Z,25.20
2022-12-12T19:44:47.275Z,27.08
2022-12-12T19:47:13.944Z,33.92
2022-12-12T19:49:40.739Z,27.83
2022-12-12T19:52:13.627Z,26.70
2022-12-12T19:54:41.048Z,26.33
2022-12-12T19:57:07.806Z,24.55
2022-12-12T19:59:34.496Z,23.42
2022-12-12T20:02:05.444Z,23.70
2022-12-12T20:04:32.523Z,23.88
2022-12-12T20:06:59.316Z,21.85
2022-12-12T20:09:28.360Z,27.25
2022-12-12T20:11:56.554Z,24.98
2022-12-12T20:14:29.274Z,21.65
2022-12-12T20:16:56.655Z,23.08
2022-12-12T20:19:26.892Z,26.45
2022-12-12T20:22:01.708Z,24.42
2022-12-12T20:24:32.451Z,25.15
2022-12-12T20:27:03.214Z,30.63
2022-12-12T20:29:36.054Z,29.20
2022-12-12T20:32:03.098Z,25.92
2022-12-12T20:34:30.110Z,33.17
2022-12-12T20:36:57.347Z,30.98
2022-12-12T20:39:25.789Z,23.00
2022-12-12T20:41:57.661Z,28.10
2022-12-12T20:44:28.992Z,26.85
2022-12-12T20:46:55.797Z,27.58
2022-12-12T20:49:28.646Z,29.38
2022-12-12T20:51:57.255Z,27.75
2022-12-12T20:54:26.379Z,26.77
2022-12-12T20:56:54.468Z,31.05
2022-12-12T20:59:21.621Z,26.80
2022-12-12T21:01:48.592Z,27.50
2022-12-12T21:04:15.790Z,27.50
2022-12-12T21:06:51.534Z,30.38
2022-12-12T21:09:24.326Z,26.25
2022-12-12T21:11:57.876Z,26.83
2022-12-12T21:14:26.598Z,31.98
2022-12-12T21:16:53.782Z,32.38
2022-12-12T21:19:21.122Z,27.38
2022-12-12T21:21:48.127Z,28.15
2022-12-12T21:24:19.358Z,25.30
2022-12-12T21:26:51.614Z,34.72
2022-12-12T21:29:21.076Z,24.30
2022-12-12T21:31:52.119Z,24.33
2022-12-12T21:34:21.353Z,31.98
2022-12-12T21:37:03.916Z,38.38
2022-12-12T21:39:34.471Z,40.50
2022-12-12T21:42:03.791Z,29.88
2022-12-12T21:44:30.615Z,27.60
2022-12-12T21:46:59.535Z,30.33
2022-12-12T21:49:27.002Z,34.25
2022-12-12T21:52:00.365Z,25.13
2022-12-12T21:54:30.213Z,30.77
2022-12-12T21:57:00.848Z,28.85
2022-12-12T21:59:30.719Z,28.58
2022-12-12T22:01:59.204Z,30.13
2022-12-12T22:04:28.967Z,27.08
2022-12-12T22:06:58.273Z,27.23
2022-12-12T22:09:26.359Z,29.45
2022-12-12T22:12:03.665Z,24.45
2022-12-12T22:14:32.552Z,25.48
2022-12-12T22:17:02.756Z,27.13
2022-12-12T22:19:29.800Z,31.25
2022-12-12T22:21:58.745Z,26.05
2022-12-12T22:24:26.246Z,28.48
2022-12-12T22:26:55.226Z,31.05
2022-12-12T22:29:21.992Z,28.80
2022-12-12T22:31:52.274Z,25.70
2022-12-12T22:34:21.798Z,31.23
2022-12-12T22:36:51.458Z,29.83
2022-12-12T22:39:24.433Z,25.83
2022-12-12T22:41:51.519Z,30.50
2022-12-12T22:44:20.621Z,29.15
2022-12-12T22:46:49.812Z,29.10
2022-12-12T22:49:20.080Z,34.55
2022-12-12T22:51:49.914Z,29.00
2022-12-12T22:54:16.917Z,25.52
2022-12-12T22:56:45.118Z,30.15
2022-12-12T22:59:13.569Z,31.85
2022-12-12T23:01:41.387Z,27.80
2022-12-12T23:04:12.875Z,31.40
2022-12-12T23:06:39.960Z,27.58
2022-12-12T23:09:18.983Z,29.38
2022-12-12T23:11:48.249Z,29.67
2022-12-12T23:14:17.633Z,33.00
2022-12-12T23:16:45.226Z,28.45
2022-12-12T23:19:15.443Z,31.92
2022-12-12T23:21:42.374Z,31.33
2022-12-12T23:24:12.042Z,34.47
2022-12-12T23:26:39.354Z,27.20
2022-12-12T23:29:09.074Z,31.13
2022-12-12T23:31:38.459Z,30.33
2022-12-12T23:34:15.420Z,27.65
2022-12-12T23:36:46.695Z,27.80
2022-12-12T23:39:13.839Z,29.98
2022-12-12T23:41:41.339Z,30.17
2022-12-12T23:44:10.749Z,30.48
2022-12-12T23:46:42.556Z,29.15
2022-12-12T23:51:50.701Z,31.70
2022-12-12T23:54:23.423Z,31.17
2022-12-12T23:56:51.197Z,38.25
2022-12-12T23:59:21.785Z,32.65
